sensor_id;sensor_type;location;lat;lon;timestamp;P1;durP1;ratioP1;P2;durP2;ratioP2
37655;SDS011;23498;50.958;3.124;2022-11-24T00:00:33;19.10;;;3.08;;
37655;SDS011;23498;50.958;3.124;2022-11-24T00:02:59;10.48;;;2.70;;
37655;SDS011;23498;50.958;3.124;2022-11-24T00:05:25;16.90;;;2.80;;
37655;SDS011;23498;50.958;3.124;2022-11-24T00:07:51;13.77;;;2.83;;
37655;SDS011;23498;50.958;3.124;2022-11-24T00:10:17;11.43;;;2.17;;
37655;SDS011;23498;50.958;3.124;2022-11-24T00:12:43;13.57;;;3.17;;
37655;SDS011;23498;50.958;3.124;2022-11-24T00:15:09;11.95;;;2.97;;
37655;SDS011;23498;50.958;3.124;2022-11-24T00:17:35;14.20;;;3.20;;
37655;SDS011;23498;50.958;3.124;2022-11-24T00:20:01;14.25;;;2.38;;
37655;SDS011;23498;50.958;3.124;2022-11-24T00:22:27;13.98;;;3.15;;
37655;SDS011;23498;50.958;3.124;2022-11-24T00:24:53;14.65;;;2.58;;
37655;SDS011;23498;50.958;3.124;2022-11-24T00:27:19;14.90;;;2.85;;
37655;SDS011;23498;50.958;3.124;2022-11-24T00:29:45;11.88;;;2.95;;
37655;SDS011;23498;50.958;3.124;2022-11-24T00:32:11;15.85;;;3.38;;
37655;SDS011;23498;50.958;3.124;2022-11-24T00:34:37;14.98;;;3.08;;
37655;SDS011;23498;50.958;3.124;2022-11-24T00:37:03;14.10;;;2.65;;
37655;SDS011;23498;50.958;3.124;2022-11-24T00:39:29;12.05;;;2.88;;
37655;SDS011;23498;50.958;3.124;2022-11-24T00:41:55;15.77;;;3.40;;
37655;SDS011;23498;50.958;3.124;2022-11-24T00:44:21;15.85;;;3.30;;
37655;SDS011;23498;50.958;3.124;2022-11-24T00:46:47;13.85;;;3.15;;
37655;SDS011;23498;50.958;3.124;2022-11-24T00:49:13;22.33;;;3.25;;
37655;SDS011;23498;50.958;3.124;2022-11-24T00:51:39;19.80;;;3.42;;
37655;SDS011;23498;50.958;3.124;2022-11-24T00:54:06;18.02;;;3.45;;
37655;SDS011;23498;50.958;3.124;2022-11-24T00:56:32;19.50;;;3.20;;
37655;SDS011;23498;50.958;3.124;2022-11-24T00:58:58;13.07;;;2.63;;
37655;SDS011;23498;50.958;3.124;2022-11-24T01:01:26;13.20;;;3.65;;
37655;SDS011;23498;50.958;3.124;2022-11-24T01:03:54;15.70;;;2.95;;
37655;SDS011;23498;50.958;3.124;2022-11-24T01:06:21;16.33;;;3.00;;
37655;SDS011;23498;50.958;3.124;2022-11-24T01:08:48;14.98;;;3.42;;
37655;SDS011;23498;50.958;3.124;2022-11-24T01:11:21;14.38;;;2.85;;
37655;SDS011;23498;50.958;3.124;2022-11-24T01:13:48;13.50;;;2.60;;
37655;SDS011;23498;50.958;3.124;2022-11-24T01:16:20;11.32;;;2.35;;
37655;SDS011;23498;50.958;3.124;2022-11-24T01:18:46;10.23;;;1.80;;
37655;SDS011;23498;50.958;3.124;2022-11-24T01:21:12;12.05;;;1.95;;
37655;SDS011;23498;50.958;3.124;2022-11-24T01:23:39;9.60;;;2.35;;
37655;SDS011;23498;50.958;3.124;2022-11-24T01:26:06;8.32;;;1.70;;
37655;SDS011;23498;50.958;3.124;2022-11-24T01:28:32;5.97;;;1.40;;
37655;SDS011;23498;50.958;3.124;2022-11-24T01:31:02;5.60;;;1.00;;
37655;SDS011;23498;50.958;3.124;2022-11-24T01:33:29;7.35;;;1.30;;
37655;SDS011;23498;50.958;3.124;2022-11-24T01:35:56;3.53;;;0.55;;
37655;SDS011;23498;50.958;3.124;2022-11-24T01:38:22;6.93;;;0.85;;
37655;SDS011;23498;50.958;3.124;2022-11-24T01:40:48;7.57;;;1.00;;
37655;SDS011;23498;50.958;3.124;2022-11-24T01:43:15;3.22;;;0.60;;
37655;SDS011;23498;50.958;3.124;2022-11-24T01:45:42;2.17;;;0.60;;
37655;SDS011;23498;50.958;3.124;2022-11-24T01:48:18;4.97;;;0.93;;
37655;SDS011;23498;50.958;3.124;2022-11-24T01:50:45;2.83;;;0.60;;
37655;SDS011;23498;50.958;3.124;2022-11-24T01:53:12;3.65;;;0.88;;
37655;SDS011;23498;50.958;3.124;2022-11-24T01:55:39;4.57;;;0.80;;
37655;SDS011;23498;50.958;3.124;2022-11-24T02:00:37;4.70;;;0.77;;
37655;SDS011;23498;50.958;3.124;2022-11-24T02:03:05;3.30;;;0.60;;
37655;SDS011;23498;50.958;3.124;2022-11-24T02:05:34;3.90;;;0.65;;
37655;SDS011;23498;50.958;3.124;2022-11-24T02:08:02;5.50;;;0.60;;
37655;SDS011;23498;50.958;3.124;2022-11-24T02:10:28;2.70;;;0.52;;
37655;SDS011;23498;50.958;3.124;2022-11-24T02:12:55;2.75;;;0.70;;
37655;SDS011;23498;50.958;3.124;2022-11-24T02:15:21;2.47;;;0.80;;
37655;SDS011;23498;50.958;3.124;2022-11-24T02:17:48;3.65;;;0.88;;
37655;SDS011;23498;50.958;3.124;2022-11-24T02:20:14;3.28;;;0.70;;
37655;SDS011;23498;50.958;3.124;2022-11-24T02:27:48;2.63;;;0.60;;
37655;SDS011;23498;50.958;3.124;2022-11-24T02:30:14;3.42;;;0.80;;
37655;SDS011;23498;50.958;3.124;2022-11-24T02:32:40;3.90;;;0.70;;
37655;SDS011;23498;50.958;3.124;2022-11-24T02:35:07;3.83;;;0.80;;
37655;SDS011;23498;50.958;3.124;2022-11-24T02:37:33;7.65;;;0.73;;
37655;SDS011;23498;50.958;3.124;2022-11-24T02:39:59;5.38;;;0.95;;
37655;SDS011;23498;50.958;3.124;2022-11-24T02:42:26;3.00;;;0.57;;
37655;SDS011;23498;50.958;3.124;2022-11-24T02:44:54;3.25;;;0.80;;
37655;SDS011;23498;50.958;3.124;2022-11-24T02:47:21;4.47;;;0.80;;
37655;SDS011;23498;50.958;3.124;2022-11-24T02:49:47;3.63;;;0.55;;
37655;SDS011;23498;50.958;3.124;2022-11-24T02:52:13;3.20;;;0.57;;
37655;SDS011;23498;50.958;3.124;2022-11-24T02:54:39;5.57;;;1.00;;
37655;SDS011;23498;50.958;3.124;2022-11-24T02:57:06;3.17;;;0.60;;
37655;SDS011;23498;50.958;3.124;2022-11-24T02:59:32;4.07;;;0.60;;
37655;SDS011;23498;50.958;3.124;2022-11-24T03:01:58;2.45;;;0.43;;
37655;SDS011;23498;50.958;3.124;2022-11-24T03:04:24;2.88;;;0.70;;
37655;SDS011;23498;50.958;3.124;2022-11-24T03:06:50;2.83;;;0.47;;
37655;SDS011;23498;50.958;3.124;2022-11-24T03:09:16;3.42;;;0.65;;
37655;SDS011;23498;50.958;3.124;2022-11-24T03:11:42;3.72;;;0.65;;
37655;SDS011;23498;50.958;3.124;2022-11-24T03:14:08;3.08;;;0.80;;
37655;SDS011;23498;50.958;3.124;2022-11-24T03:16:34;5.45;;;1.15;;
37655;SDS011;23498;50.958;3.124;2022-11-24T03:19:00;4.97;;;0.90;;
37655;SDS011;23498;50.958;3.124;2022-11-24T03:21:27;3.40;;;0.80;;
37655;SDS011;23498;50.958;3.124;2022-11-24T03:23:53;4.70;;;0.85;;
37655;SDS011;23498;50.958;3.124;2022-11-24T03:26:20;4.15;;;0.77;;
37655;SDS011;23498;50.958;3.124;2022-11-24T03:28:46;3.35;;;0.90;;
37655;SDS011;23498;50.958;3.124;2022-11-24T03:31:12;7.90;;;0.98;;
37655;SDS011;23498;50.958;3.124;2022-11-24T03:33:38;4.45;;;0.80;;
37655;SDS011;23498;50.958;3.124;2022-11-24T03:36:05;6.60;;;1.00;;
37655;SDS011;23498;50.958;3.124;2022-11-24T03:38:31;7.75;;;1.08;;
37655;SDS011;23498;50.958;3.124;2022-11-24T03:40:57;8.20;;;1.08;;
37655;SDS011;23498;50.958;3.124;2022-11-24T03:43:23;7.55;;;0.93;;
37655;SDS011;23498;50.958;3.124;2022-11-24T03:45:50;4.72;;;0.73;;
37655;SDS011;23498;50.958;3.124;2022-11-24T03:48:16;7.18;;;1.10;;
37655;SDS011;23498;50.958;3.124;2022-11-24T03:50:51;8.05;;;1.30;;
37655;SDS011;23498;50.958;3.124;2022-11-24T03:53:17;9.85;;;1.42;;
37655;SDS011;23498;50.958;3.124;2022-11-24T03:55:43;8.57;;;1.42;;
37655;SDS011;23498;50.958;3.124;2022-11-24T03:58:09;5.93;;;1.10;;
37655;SDS011;23498;50.958;3.124;2022-11-24T04:00:35;7.93;;;1.23;;
37655;SDS011;23498;50.958;3.124;2022-11-24T04:03:01;7.88;;;1.40;;
37655;SDS011;23498;50.958;3.124;2022-11-24T04:05:27;4.43;;;0.77;;
37655;SDS011;23498;50.958;3.124;2022-11-24T04:07:56;6.22;;;1.20;;
37655;SDS011;23498;50.958;3.124;2022-11-24T04:10:26;5.45;;;1.35;;
37655;SDS011;23498;50.958;3.124;2022-11-24T04:12:53;11.38;;;1.27;;
37655;SDS011;23498;50.958;3.124;2022-11-24T04:15:19;6.13;;;1.45;;
37655;SDS011;23498;50.958;3.124;2022-11-24T04:17:46;7.68;;;1.55;;
37655;SDS011;23498;50.958;3.124;2022-11-24T04:20:13;7.82;;;1.30;;
37655;SDS011;23498;50.958;3.124;2022-11-24T04:22:39;8.35;;;1.77;;
37655;SDS011;23498;50.958;3.124;2022-11-24T04:25:05;11.65;;;1.67;;
37655;SDS011;23498;50.958;3.124;2022-11-24T04:27:32;6.65;;;1.30;;
37655;SDS011;23498;50.958;3.124;2022-11-24T04:29:58;7.85;;;1.30;;
37655;SDS011;23498;50.958;3.124;2022-11-24T04:32:24;10.88;;;1.52;;
37655;SDS011;23498;50.958;3.124;2022-11-24T04:34:50;7.10;;;1.38;;
37655;SDS011;23498;50.958;3.124;2022-11-24T04:37:16;9.05;;;2.05;;
37655;SDS011;23498;50.958;3.124;2022-11-24T04:39:42;7.30;;;1.38;;
37655;SDS011;23498;50.958;3.124;2022-11-24T04:42:10;9.70;;;1.75;;
37655;SDS011;23498;50.958;3.124;2022-11-24T04:44:36;9.57;;;2.00;;
37655;SDS011;23498;50.958;3.124;2022-11-24T04:47:02;9.38;;;2.22;;
37655;SDS011;23498;50.958;3.124;2022-11-24T04:49:28;10.48;;;1.73;;
37655;SDS011;23498;50.958;3.124;2022-11-24T04:51:55;5.72;;;1.65;;
37655;SDS011;23498;50.958;3.124;2022-11-24T04:54:21;8.02;;;1.40;;
37655;SDS011;23498;50.958;3.124;2022-11-24T04:56:50;10.65;;;1.80;;
37655;SDS011;23498;50.958;3.124;2022-11-24T04:59:16;9.02;;;1.67;;
37655;SDS011;23498;50.958;3.124;2022-11-24T05:01:43;5.97;;;1.55;;
37655;SDS011;23498;50.958;3.124;2022-11-24T05:04:09;5.07;;;1.45;;
37655;SDS011;23498;50.958;3.124;2022-11-24T05:06:36;10.88;;;1.85;;
37655;SDS011;23498;50.958;3.124;2022-11-24T05:09:02;11.45;;;1.90;;
37655;SDS011;23498;50.958;3.124;2022-11-24T05:11:28;8.65;;;1.25;;
37655;SDS011;23498;50.958;3.124;2022-11-24T05:13:54;5.85;;;1.77;;
37655;SDS011;23498;50.958;3.124;2022-11-24T05:16:20;9.02;;;2.10;;
37655;SDS011;23498;50.958;3.124;2022-11-24T05:18:46;6.93;;;1.70;;
37655;SDS011;23498;50.958;3.124;2022-11-24T05:21:12;10.73;;;2.25;;
37655;SDS011;23498;50.958;3.124;2022-11-24T05:23:38;7.65;;;1.40;;
37655;SDS011;23498;50.958;3.124;2022-11-24T05:26:04;11.48;;;1.60;;
37655;SDS011;23498;50.958;3.124;2022-11-24T05:28:30;12.85;;;1.80;;
37655;SDS011;23498;50.958;3.124;2022-11-24T05:31:00;9.55;;;1.98;;
37655;SDS011;23498;50.958;3.124;2022-11-24T05:33:26;10.35;;;1.58;;
37655;SDS011;23498;50.958;3.124;2022-11-24T05:35:54;11.25;;;1.95;;
37655;SDS011;23498;50.958;3.124;2022-11-24T05:38:20;9.40;;;1.80;;
37655;SDS011;23498;50.958;3.124;2022-11-24T05:40:47;7.63;;;1.55;;
37655;SDS011;23498;50.958;3.124;2022-11-24T05:43:14;10.75;;;1.98;;
37655;SDS011;23498;50.958;3.124;2022-11-24T05:45:40;10.27;;;1.75;;
37655;SDS011;23498;50.958;3.124;2022-11-24T05:48:07;10.45;;;2.10;;
37655;SDS011;23498;50.958;3.124;2022-11-24T05:50:33;12.05;;;2.03;;
37655;SDS011;23498;50.958;3.124;2022-11-24T05:53:03;18.40;;;2.50;;
37655;SDS011;23498;50.958;3.124;2022-11-24T05:55:29;12.82;;;2.22;;
37655;SDS011;23498;50.958;3.124;2022-11-24T05:58:02;13.00;;;2.13;;
37655;SDS011;23498;50.958;3.124;2022-11-24T06:00:29;14.93;;;1.73;;
37655;SDS011;23498;50.958;3.124;2022-11-24T06:02:56;11.35;;;2.83;;
37655;SDS011;23498;50.958;3.124;2022-11-24T06:05:22;14.77;;;2.20;;
37655;SDS011;23498;50.958;3.124;2022-11-24T06:07:48;14.15;;;2.25;;
37655;SDS011;23498;50.958;3.124;2022-11-24T06:10:15;24.85;;;2.90;;
37655;SDS011;23498;50.958;3.124;2022-11-24T06:12:41;12.80;;;2.28;;
37655;SDS011;23498;50.958;3.124;2022-11-24T06:15:07;14.13;;;2.47;;
37655;SDS011;23498;50.958;3.124;2022-11-24T06:17:33;13.77;;;2.38;;
37655;SDS011;23498;50.958;3.124;2022-11-24T06:19:59;10.00;;;2.03;;
37655;SDS011;23498;50.958;3.124;2022-11-24T06:22:25;14.23;;;2.78;;
37655;SDS011;23498;50.958;3.124;2022-11-24T06:24:51;11.70;;;2.28;;
37655;SDS011;23498;50.958;3.124;2022-11-24T06:27:17;13.88;;;2.83;;
37655;SDS011;23498;50.958;3.124;2022-11-24T06:29:44;14.68;;;2.22;;
37655;SDS011;23498;50.958;3.124;2022-11-24T06:32:13;14.32;;;2.65;;
37655;SDS011;23498;50.958;3.124;2022-11-24T06:34:39;13.60;;;3.00;;
37655;SDS011;23498;50.958;3.124;2022-11-24T06:37:05;16.70;;;2.78;;
37655;SDS011;23498;50.958;3.124;2022-11-24T06:39:31;13.63;;;2.42;;
37655;SDS011;23498;50.958;3.124;2022-11-24T06:41:57;14.10;;;3.33;;
37655;SDS011;23498;50.958;3.124;2022-11-24T06:44:23;11.10;;;2.45;;
37655;SDS011;23498;50.958;3.124;2022-11-24T06:46:49;11.18;;;2.85;;
37655;SDS011;23498;50.958;3.124;2022-11-24T06:49:15;11.07;;;2.30;;
37655;SDS011;23498;50.958;3.124;2022-11-24T06:51:41;13.18;;;2.70;;
37655;SDS011;23498;50.958;3.124;2022-11-24T06:54:08;14.25;;;2.47;;
37655;SDS011;23498;50.958;3.124;2022-11-24T06:56:34;16.42;;;2.42;;
37655;SDS011;23498;50.958;3.124;2022-11-24T06:59:00;15.65;;;2.97;;
37655;SDS011;23498;50.958;3.124;2022-11-24T07:01:27;15.60;;;3.55;;
37655;SDS011;23498;50.958;3.124;2022-11-24T07:03:54;12.57;;;2.40;;
37655;SDS011;23498;50.958;3.124;2022-11-24T07:06:21;14.65;;;3.10;;
37655;SDS011;23498;50.958;3.124;2022-11-24T07:08:47;15.43;;;3.38;;
37655;SDS011;23498;50.958;3.124;2022-11-24T07:11:14;13.82;;;3.30;;
37655;SDS011;23498;50.958;3.124;2022-11-24T07:13:43;18.35;;;3.40;;
37655;SDS011;23498;50.958;3.124;2022-11-24T07:18:45;15.07;;;3.35;;
37655;SDS011;23498;50.958;3.124;2022-11-24T07:21:11;13.57;;;3.05;;
37655;SDS011;23498;50.958;3.124;2022-11-24T07:23:37;13.80;;;2.88;;
37655;SDS011;23498;50.958;3.124;2022-11-24T07:26:03;15.68;;;3.45;;
37655;SDS011;23498;50.958;3.124;2022-11-24T07:28:29;14.30;;;3.25;;
37655;SDS011;23498;50.958;3.124;2022-11-24T07:30:55;21.20;;;3.75;;
37655;SDS011;23498;50.958;3.124;2022-11-24T07:33:22;16.33;;;3.70;;
37655;SDS011;23498;50.958;3.124;2022-11-24T07:35:51;17.60;;;3.72;;
37655;SDS011;23498;50.958;3.124;2022-11-24T07:38:18;14.00;;;3.50;;
37655;SDS011;23498;50.958;3.124;2022-11-24T07:40:44;16.30;;;3.63;;
37655;SDS011;23498;50.958;3.124;2022-11-24T07:43:11;14.25;;;3.90;;
37655;SDS011;23498;50.958;3.124;2022-11-24T07:45:37;10.65;;;3.45;;
37655;SDS011;23498;50.958;3.124;2022-11-24T07:48:03;12.52;;;4.03;;
37655;SDS011;23498;50.958;3.124;2022-11-24T07:50:29;15.80;;;3.42;;
37655;SDS011;23498;50.958;3.124;2022-11-24T07:52:59;19.52;;;4.32;;
37655;SDS011;23498;50.958;3.124;2022-11-24T07:55:25;10.73;;;3.28;;
37655;SDS011;23498;50.958;3.124;2022-11-24T07:57:51;18.17;;;3.88;;
37655;SDS011;23498;50.958;3.124;2022-11-24T08:00:17;14.27;;;3.78;;
37655;SDS011;23498;50.958;3.124;2022-11-24T08:02:43;12.80;;;3.72;;
37655;SDS011;23498;50.958;3.124;2022-11-24T08:05:09;17.38;;;4.10;;
37655;SDS011;23498;50.958;3.124;2022-11-24T08:07:35;11.95;;;3.22;;
37655;SDS011;23498;50.958;3.124;2022-11-24T08:10:01;11.13;;;3.60;;
37655;SDS011;23498;50.958;3.124;2022-11-24T08:12:27;17.33;;;3.55;;
37655;SDS011;23498;50.958;3.124;2022-11-24T08:14:53;15.25;;;3.58;;
37655;SDS011;23498;50.958;3.124;2022-11-24T08:17:20;15.07;;;3.75;;
37655;SDS011;23498;50.958;3.124;2022-11-24T08:19:46;13.00;;;2.92;;
37655;SDS011;23498;50.958;3.124;2022-11-24T08:22:12;12.00;;;3.60;;
37655;SDS011;23498;50.958;3.124;2022-11-24T08:24:38;16.55;;;3.38;;
37655;SDS011;23498;50.958;3.124;2022-11-24T08:27:10;17.65;;;3.40;;
37655;SDS011;23498;50.958;3.124;2022-11-24T08:29:36;19.65;;;3.95;;
37655;SDS011;23498;50.958;3.124;2022-11-24T08:32:02;18.27;;;4.13;;
37655;SDS011;23498;50.958;3.124;2022-11-24T08:34:28;11.88;;;3.78;;
37655;SDS011;23498;50.958;3.124;2022-11-24T08:36:54;20.60;;;4.43;;
37655;SDS011;23498;50.958;3.124;2022-11-24T08:39:20;20.02;;;4.30;;
37655;SDS011;23498;50.958;3.124;2022-11-24T08:41:46;19.02;;;4.55;;
37655;SDS011;23498;50.958;3.124;2022-11-24T08:44:12;15.15;;;4.53;;
37655;SDS011;23498;50.958;3.124;2022-11-24T08:46:40;13.85;;;4.10;;
37655;SDS011;23498;50.958;3.124;2022-11-24T08:49:06;18.63;;;4.57;;
37655;SDS011;23498;50.958;3.124;2022-11-24T08:51:32;14.30;;;4.65;;
37655;SDS011;23498;50.958;3.124;2022-11-24T08:53:58;20.13;;;4.65;;
37655;SDS011;23498;50.958;3.124;2022-11-24T08:56:26;19.27;;;5.15;;
37655;SDS011;23498;50.958;3.124;2022-11-24T08:58:53;21.08;;;5.20;;
37655;SDS011;23498;50.958;3.124;2022-11-24T09:01:19;13.38;;;5.05;;
37655;SDS011;23498;50.958;3.124;2022-11-24T09:03:46;17.58;;;4.78;;
37655;SDS011;23498;50.958;3.124;2022-11-24T09:06:12;18.27;;;4.82;;
37655;SDS011;23498;50.958;3.124;2022-11-24T09:08:38;17.67;;;5.07;;
37655;SDS011;23498;50.958;3.124;2022-11-24T09:11:11;22.33;;;4.78;;
37655;SDS011;23498;50.958;3.124;2022-11-24T09:13:37;21.38;;;5.38;;
37655;SDS011;23498;50.958;3.124;2022-11-24T09:16:05;17.52;;;4.75;;
37655;SDS011;23498;50.958;3.124;2022-11-24T09:18:32;21.83;;;4.38;;
37655;SDS011;23498;50.958;3.124;2022-11-24T09:21:08;20.83;;;5.25;;
37655;SDS011;23498;50.958;3.124;2022-11-24T09:23:34;23.52;;;5.20;;
37655;SDS011;23498;50.958;3.124;2022-11-24T09:26:04;18.92;;;5.10;;
37655;SDS011;23498;50.958;3.124;2022-11-24T09:28:30;20.88;;;5.82;;
37655;SDS011;23498;50.958;3.124;2022-11-24T09:31:03;23.17;;;5.47;;
37655;SDS011;23498;50.958;3.124;2022-11-24T09:33:30;20.13;;;5.05;;
37655;SDS011;23498;50.958;3.124;2022-11-24T09:35:56;21.05;;;5.30;;
37655;SDS011;23498;50.958;3.124;2022-11-24T09:38:22;20.52;;;4.95;;
37655;SDS011;23498;50.958;3.124;2022-11-24T09:40:49;17.77;;;5.47;;
37655;SDS011;23498;50.958;3.124;2022-11-24T09:43:22;16.42;;;4.47;;
37655;SDS011;23498;50.958;3.124;2022-11-24T09:45:56;17.50;;;4.63;;
37655;SDS011;23498;50.958;3.124;2022-11-24T09:48:27;23.33;;;4.68;;
37655;SDS011;23498;50.958;3.124;2022-11-24T09:50:55;20.83;;;4.40;;
37655;SDS011;23498;50.958;3.124;2022-11-24T09:53:36;16.70;;;4.05;;
37655;SDS011;23498;50.958;3.124;2022-11-24T09:56:11;13.82;;;3.90;;
37655;SDS011;23498;50.958;3.124;2022-11-24T09:59:02;17.88;;;3.42;;
37655;SDS011;23498;50.958;3.124;2022-11-24T10:01:30;17.98;;;4.00;;
37655;SDS011;23498;50.958;3.124;2022-11-24T10:03:58;14.20;;;3.58;;
37655;SDS011;23498;50.958;3.124;2022-11-24T10:06:29;17.83;;;3.42;;
37655;SDS011;23498;50.958;3.124;2022-11-24T10:09:06;15.63;;;3.60;;
37655;SDS011;23498;50.958;3.124;2022-11-24T10:16:59;17.17;;;3.85;;
37655;SDS011;23498;50.958;3.124;2022-11-24T10:19:34;22.55;;;3.97;;
37655;SDS011;23498;50.958;3.124;2022-11-24T10:27:18;15.10;;;3.35;;
37655;SDS011;23498;50.958;3.124;2022-11-24T10:29:50;15.10;;;3.42;;
37655;SDS011;23498;50.958;3.124;2022-11-24T10:32:18;13.68;;;3.13;;
37655;SDS011;23498;50.958;3.124;2022-11-24T10:34:45;14.30;;;3.50;;
37655;SDS011;23498;50.958;3.124;2022-11-24T10:37:22;20.23;;;4.35;;
37655;SDS011;23498;50.958;3.124;2022-11-24T10:40:11;19.70;;;3.55;;
37655;SDS011;23498;50.958;3.124;2022-11-24T10:42:39;13.88;;;3.13;;
37655;SDS011;23498;50.958;3.124;2022-11-24T10:47:35;14.52;;;3.45;;
37655;SDS011;23498;50.958;3.124;2022-11-24T10:50:04;17.45;;;2.80;;
37655;SDS011;23498;50.958;3.124;2022-11-24T10:52:31;20.48;;;3.45;;
37655;SDS011;23498;50.958;3.124;2022-11-24T10:55:00;13.50;;;3.05;;
37655;SDS011;23498;50.958;3.124;2022-11-24T10:57:30;15.35;;;2.95;;
37655;SDS011;23498;50.958;3.124;2022-11-24T10:59:57;18.58;;;3.05;;
37655;SDS011;23498;50.958;3.124;2022-11-24T11:02:34;14.48;;;3.38;;
37655;SDS011;23498;50.958;3.124;2022-11-24T11:07:45;15.63;;;3.13;;
37655;SDS011;23498;50.958;3.124;2022-11-24T11:10:21;14.52;;;3.28;;
37655;SDS011;23498;50.958;3.124;2022-11-24T11:12:47;15.70;;;3.53;;
37655;SDS011;23498;50.958;3.124;2022-11-24T11:15:20;21.52;;;2.88;;
37655;SDS011;23498;50.958;3.124;2022-11-24T11:17:47;13.02;;;2.88;;
37655;SDS011;23498;50.958;3.124;2022-11-24T11:20:18;17.33;;;3.40;;
37655;SDS011;23498;50.958;3.124;2022-11-24T11:22:46;12.68;;;2.78;;
37655;SDS011;23498;50.958;3.124;2022-11-24T11:27:39;14.45;;;2.72;;
37655;SDS011;23498;50.958;3.124;2022-11-24T11:33:02;15.70;;;3.00;;
37655;SDS011;23498;50.958;3.124;2022-11-24T11:35:27;17.30;;;2.90;;
37655;SDS011;23498;50.958;3.124;2022-11-24T11:37:56;14.82;;;2.85;;
37655;SDS011;23498;50.958;3.124;2022-11-24T11:40:26;11.70;;;3.53;;
37655;SDS011;23498;50.958;3.124;2022-11-24T11:43:05;17.23;;;3.08;;
37655;SDS011;23498;50.958;3.124;2022-11-24T11:45:33;16.33;;;3.03;;
37655;SDS011;23498;50.958;3.124;2022-11-24T11:50:33;15.90;;;3.58;;
37655;SDS011;23498;50.958;3.124;2022-11-24T12:06:55;17.42;;;3.92;;
37655;SDS011;23498;50.958;3.124;2022-11-24T12:09:28;15.73;;;3.65;;
37655;SDS011;23498;50.958;3.124;2022-11-24T12:17:20;17.45;;;3.25;;
37655;SDS011;23498;50.958;3.124;2022-11-24T12:19:58;11.85;;;2.65;;
37655;SDS011;23498;50.958;3.124;2022-11-24T12:22:41;16.55;;;2.92;;
37655;SDS011;23498;50.958;3.124;2022-11-24T12:25:21;15.00;;;2.40;;
37655;SDS011;23498;50.958;3.124;2022-11-24T12:27:54;16.83;;;2.67;;
37655;SDS011;23498;50.958;3.124;2022-11-24T12:30:22;16.35;;;2.67;;
37655;SDS011;23498;50.958;3.124;2022-11-24T12:45:33;21.90;;;3.95;;
37655;SDS011;23498;50.958;3.124;2022-11-24T12:50:40;18.20;;;3.55;;
37655;SDS011;23498;50.958;3.124;2022-11-24T12:53:12;16.88;;;3.40;;
37655;SDS011;23498;50.958;3.124;2022-11-24T12:55:40;13.93;;;3.35;;
37655;SDS011;23498;50.958;3.124;2022-11-24T13:05:57;13.85;;;3.25;;
37655;SDS011;23498;50.958;3.124;2022-11-24T13:08:24;17.02;;;3.55;;
37655;SDS011;23498;50.958;3.124;2022-11-24T13:10:51;18.20;;;3.80;;
37655;SDS011;23498;50.958;3.124;2022-11-24T13:13:17;16.70;;;3.53;;
37655;SDS011;23498;50.958;3.124;2022-11-24T13:21:25;17.00;;;3.03;;
37655;SDS011;23498;50.958;3.124;2022-11-24T13:23:56;17.45;;;3.40;;
37655;SDS011;23498;50.958;3.124;2022-11-24T13:29:01;19.83;;;3.83;;
37655;SDS011;23498;50.958;3.124;2022-11-24T13:31:28;16.67;;;3.30;;
37655;SDS011;23498;50.958;3.124;2022-11-24T13:33:55;27.30;;;4.07;;
37655;SDS011;23498;50.958;3.124;2022-11-24T13:46:54;17.33;;;2.80;;
37655;SDS011;23498;50.958;3.124;2022-11-24T13:49:20;13.77;;;3.13;;
37655;SDS011;23498;50.958;3.124;2022-11-24T13:51:46;15.77;;;3.28;;
37655;SDS011;23498;50.958;3.124;2022-11-24T13:54:12;19.75;;;3.17;;
37655;SDS011;23498;50.958;3.124;2022-11-24T13:56:39;13.25;;;3.00;;
37655;SDS011;23498;50.958;3.124;2022-11-24T14:02:02;18.60;;;3.25;;
37655;SDS011;23498;50.958;3.124;2022-11-24T14:04:40;21.67;;;3.10;;
37655;SDS011;23498;50.958;3.124;2022-11-24T14:07:10;17.92;;;3.13;;
37655;SDS011;23498;50.958;3.124;2022-11-24T14:09:41;15.13;;;3.55;;
37655;SDS011;23498;50.958;3.124;2022-11-24T14:12:21;14.98;;;2.95;;
37655;SDS011;23498;50.958;3.124;2022-11-24T14:14:48;16.45;;;3.30;;
37655;SDS011;23498;50.958;3.124;2022-11-24T14:19:41;16.83;;;3.63;;
37655;SDS011;23498;50.958;3.124;2022-11-24T14:22:15;17.27;;;3.60;;
37655;SDS011;23498;50.958;3.124;2022-11-24T14:24:42;18.45;;;3.45;;
37655;SDS011;23498;50.958;3.124;2022-11-24T14:27:12;17.58;;;3.38;;
37655;SDS011;23498;50.958;3.124;2022-11-24T14:29:50;14.63;;;3.42;;
37655;SDS011;23498;50.958;3.124;2022-11-24T14:32:16;15.25;;;3.40;;
37655;SDS011;23498;50.958;3.124;2022-11-24T14:34:42;18.15;;;3.25;;
37655;SDS011;23498;50.958;3.124;2022-11-24T14:37:08;19.52;;;4.28;;
37655;SDS011;23498;50.958;3.124;2022-11-24T14:39:39;31.70;;;8.98;;
37655;SDS011;23498;50.958;3.124;2022-11-24T14:42:26;16.33;;;4.00;;
37655;SDS011;23498;50.958;3.124;2022-11-24T14:44:57;19.92;;;3.67;;
37655;SDS011;23498;50.958;3.124;2022-11-24T14:49:50;18.88;;;4.22;;
37655;SDS011;23498;50.958;3.124;2022-11-24T14:52:17;16.30;;;4.05;;
37655;SDS011;23498;50.958;3.124;2022-11-24T14:54:56;19.30;;;3.60;;
37655;SDS011;23498;50.958;3.124;2022-11-24T15:02:35;18.25;;;3.40;;
37655;SDS011;23498;50.958;3.124;2022-11-24T15:05:03;20.80;;;5.28;;
37655;SDS011;23498;50.958;3.124;2022-11-24T15:07:29;23.38;;;4.40;;
37655;SDS011;23498;50.958;3.124;2022-11-24T15:10:05;17.77;;;3.78;;
37655;SDS011;23498;50.958;3.124;2022-11-24T15:12:35;16.65;;;3.85;;
37655;SDS011;23498;50.958;3.124;2022-11-24T15:15:03;12.77;;;2.90;;
37655;SDS011;23498;50.958;3.124;2022-11-24T15:17:31;24.45;;;4.32;;
37655;SDS011;23498;50.958;3.124;2022-11-24T15:20:07;21.05;;;6.38;;
37655;SDS011;23498;50.958;3.124;2022-11-24T15:22:35;13.98;;;4.43;;
37655;SDS011;23498;50.958;3.124;2022-11-24T15:25:02;14.55;;;3.65;;
37655;SDS011;23498;50.958;3.124;2022-11-24T15:27:28;19.77;;;3.70;;
37655;SDS011;23498;50.958;3.124;2022-11-24T15:29:54;16.02;;;3.78;;
37655;SDS011;23498;50.958;3.124;2022-11-24T15:32:20;17.58;;;3.40;;
37655;SDS011;23498;50.958;3.124;2022-11-24T15:34:46;17.30;;;3.53;;
37655;SDS011;23498;50.958;3.124;2022-11-24T15:37:12;18.00;;;4.40;;
37655;SDS011;23498;50.958;3.124;2022-11-24T15:39:38;18.58;;;3.90;;
37655;SDS011;23498;50.958;3.124;2022-11-24T15:42:04;17.63;;;3.47;;
37655;SDS011;23498;50.958;3.124;2022-11-24T15:44:30;21.48;;;4.05;;
37655;SDS011;23498;50.958;3.124;2022-11-24T15:46:58;17.73;;;3.95;;
37655;SDS011;23498;50.958;3.124;2022-11-24T15:49:24;24.00;;;4.57;;
37655;SDS011;23498;50.958;3.124;2022-11-24T15:51:50;17.00;;;3.47;;
37655;SDS011;23498;50.958;3.124;2022-11-24T15:54:16;14.73;;;3.10;;
37655;SDS011;23498;50.958;3.124;2022-11-24T15:56:43;20.08;;;4.03;;
37655;SDS011;23498;50.958;3.124;2022-11-24T15:59:13;16.17;;;3.80;;
37655;SDS011;23498;50.958;3.124;2022-11-24T16:01:42;18.98;;;3.63;;
37655;SDS011;23498;50.958;3.124;2022-11-24T16:04:10;20.90;;;4.25;;
37655;SDS011;23498;50.958;3.124;2022-11-24T16:06:37;14.13;;;3.53;;
37655;SDS011;23498;50.958;3.124;2022-11-24T16:09:03;16.85;;;4.15;;
37655;SDS011;23498;50.958;3.124;2022-11-24T16:11:29;17.33;;;3.70;;
37655;SDS011;23498;50.958;3.124;2022-11-24T16:13:55;19.30;;;4.13;;
37655;SDS011;23498;50.958;3.124;2022-11-24T16:16:21;20.50;;;3.97;;
37655;SDS011;23498;50.958;3.124;2022-11-24T16:18:48;16.45;;;3.92;;
37655;SDS011;23498;50.958;3.124;2022-11-24T16:21:14;16.63;;;4.00;;
37655;SDS011;23498;50.958;3.124;2022-11-24T16:23:40;13.15;;;4.38;;
37655;SDS011;23498;50.958;3.124;2022-11-24T16:26:06;19.67;;;4.20;;
37655;SDS011;23498;50.958;3.124;2022-11-24T16:28:32;17.00;;;4.35;;